Map

Track Data

SID SEASON NUMBER BASIN SUBBASIN NAME ISO_TIME NATURE LAT LON WMO_WIND WMO_PRES WMO_AGENCY TRACK_TYPE DIST2LAND LANDFALL IFLAG USA_AGENCY USA_ATCF_ID USA_LAT USA_LON USA_RECORD USA_STATUS USA_WIND USA_PRES USA_SSHS USA_R34_NE USA_R34_SE USA_R34_SW USA_R34_NW USA_R50_NE USA_R50_SE USA_R50_SW USA_R50_NW USA_R64_NE USA_R64_SE USA_R64_SW USA_R64_NW USA_POCI USA_ROCI USA_RMW USA_EYE TOKYO_LAT TOKYO_LON TOKYO_GRADE TOKYO_WIND TOKYO_PRES TOKYO_R50_DIR TOKYO_R50_LONG TOKYO_R50_SHORT TOKYO_R30_DIR TOKYO_R30_LONG TOKYO_R30_SHORT TOKYO_LAND CMA_LAT CMA_LON CMA_CAT CMA_WIND CMA_PRES HKO_LAT HKO_LON HKO_CAT HKO_WIND HKO_PRES NEWDELHI_LAT NEWDELHI_LON NEWDELHI_GRADE NEWDELHI_WIND NEWDELHI_PRES NEWDELHI_CI NEWDELHI_DP NEWDELHI_POCI REUNION_LAT REUNION_LON REUNION_TYPE REUNION_WIND REUNION_PRES REUNION_TNUM REUNION_CI REUNION_RMW REUNION_R34_NE REUNION_R34_SE REUNION_R34_SW REUNION_R34_NW REUNION_R50_NE REUNION_R50_SE REUNION_R50_SW REUNION_R50_NW REUNION_R64_NE REUNION_R64_SE REUNION_R64_SW REUNION_R64_NW BOM_LAT BOM_LON BOM_TYPE BOM_WIND BOM_PRES BOM_TNUM BOM_CI BOM_RMW BOM_R34_NE BOM_R34_SE BOM_R34_SW BOM_R34_NW BOM_R50_NE BOM_R50_SE BOM_R50_SW BOM_R50_NW BOM_R64_NE BOM_R64_SE BOM_R64_SW BOM_R64_NW BOM_ROCI BOM_POCI BOM_EYE BOM_POS_METHOD BOM_PRES_METHOD NADI_LAT NADI_LON NADI_CAT NADI_WIND NADI_PRES WELLINGTON_LAT WELLINGTON_LON WELLINGTON_WIND WELLINGTON_PRES DS824_LAT DS824_LON DS824_STAGE DS824_WIND DS824_PRES TD9636_LAT TD9636_LON TD9636_STAGE TD9636_WIND TD9636_PRES TD9635_LAT TD9635_LON TD9635_WIND TD9635_PRES TD9635_ROCI NEUMANN_LAT NEUMANN_LON NEUMANN_CLASS NEUMANN_WIND NEUMANN_PRES MLC_LAT MLC_LON MLC_CLASS MLC_WIND MLC_PRES USA_GUST BOM_GUST BOM_GUST_PER REUNION_GUST REUNION_GUST_PER USA_SEAHGT USA_SEARAD_NE USA_SEARAD_SE USA_SEARAD_SW USA_SEARAD_NW STORM_SPEED STORM_DIR
2022056S14094 2022 11 SI WA VERNON 2022-02-25 06:00:00 NR -13.8000 94.4000 PROVISIONAL 1398 1398 O_____________ tcvitals SI142022 -13.8000 94.4000 45 997 0 30 45 40 30 1006 90 10 14 236
2022056S14094 2022 11 SI WA VERNON 2022-02-25 09:00:00 NR -14.1981 93.7982 PROVISIONAL 1474 1474 P_____________ SI142022 -14.1981 93.7982 57 990 0 40 55 50 35 1006 90 7 13 237
2022056S14094 2022 11 SI WA VERNON 2022-02-25 12:00:00 NR -14.5000 93.3000 PROVISIONAL 1535 1535 O_____________ tcvitals SI142022 -14.5000 93.3000 70 983 1 50 65 60 40 1006 90 5 9 242
2022056S14094 2022 11 SI WA VERNON 2022-02-25 15:00:00 NR -14.6443 92.9447 PROVISIONAL 1572 1572 P_____________ SI142022 -14.6443 92.9447 75 979 1 57 77 72 47 1006 90 5 8 256
2022056S14094 2022 11 SI WA VERNON 2022-02-25 18:00:00 NR -14.7000 92.5000 PROVISIONAL 1609 1609 O_____________ tcvitals SI142022 -14.7000 92.5000 80 976 1 65 90 85 55 1006 90 5 12 264
2022056S14094 2022 11 SI WA VERNON 2022-02-25 21:00:00 NR -14.7728 91.7176 PROVISIONAL 1667 1667 P_____________ SI142022 -14.7728 91.7176 89 967 2 65 85 85 62 1005 90 5 16 267
2022056S14094 2022 11 SI WA VERNON 2022-02-26 00:00:00 NR -14.8000 90.8000 PROVISIONAL 1716 1716 O_____________ tcvitals SI142022 -14.8000 90.8000 99 959 3 65 80 85 70 1004 90 6 18 269
2022056S14094 2022 11 SI MM VERNON 2022-02-26 03:00:00 NR -14.7951 89.9051 PROVISIONAL 1769 1769 P_____________ SI142022 -14.7951 89.9051 107 952 3 87 107 110 72 1004 90 5 16 273
2022056S14094 2022 11 SI MM VERNON 2022-02-26 06:00:00 NR -14.7000 89.1000 PROVISIONAL 1811 1811 O_____________ tcvitals SI142022 -14.7000 89.1000 115 946 4 110 135 135 75 1005 90 5 14 280
2022056S14094 2022 11 SI MM VERNON 2022-02-26 09:00:00 NR -14.5472 88.4526 PROVISIONAL 1833 1833 P_____________ SI142022 -14.5472 88.4526 107 953 3 90 117 117 80 1005 92 5 12 295
2022056S14094 2022 11 SI MM VERNON 2022-02-26 12:00:00 NR -14.2000 88.0000 PROVISIONAL 1843 1807 O_____________ tcvitals SI142022 -14.2000 88.0000 99 960 3 70 100 100 85 1005 95 5 13 326
2022056S14094 2022 11 SI MM VERNON 2022-02-26 15:00:00 NR -13.4998 87.7325 PROVISIONAL 1807 1760 P_____________ SI142022 -13.4998 87.7325 99 960 3 57 70 72 70 1005 95 5 15 344
2022056S14094 2022 11 SI MM VERNON 2022-02-26 18:00:00 NR -12.8000 87.6000 PROVISIONAL 1760 1744 O_____________ tcvitals SI142022 -12.8000 87.6000 99 960 3 45 40 45 55 1005 95 5 11 347
2022056S14094 2022 11 SI MM VERNON 2022-02-26 21:00:00 NR -12.4675 87.4777 PROVISIONAL 1744 1737 P_____________ SI142022 -12.4675 87.4777 99 954 3 45 40 45 55 1005 95 5 5 339
2022056S14094 2022 11 SI MM VERNON 2022-02-27 00:00:00 NR -12.3000 87.4000 PROVISIONAL 1737 1730 O_____________ tcvitals SI142022 -12.3000 87.4000 99 948 3 45 40 45 55 1005 95 5 4 329
2022056S14094 2022 11 SI MM VERNON 2022-02-27 03:00:00 NR -12.0973 87.2526 PROVISIONAL 1730 1723 P_____________ SI142022 -12.0973 87.2526 91 959 2 65 100 75 77 1006 140 5 3 343
2022056S14094 2022 11 SI MM VERNON 2022-02-27 06:00:00 NR -12.0000 87.3000 PROVISIONAL 1723 1682 O_____________ tcvitals SI142022 -12.0000 87.3000 84 971 2 85 160 105 100 1007 185 5 5 78
2022056S14094 2022 11 SI MM VERNON 2022-02-27 09:00:00 NR -11.9804 87.7977 PROVISIONAL 1682 1650 P_____________ SI142022 -11.9804 87.7977 77 975 1 87 150 95 97 1007 185 5 11 101
2022056S14094 2022 11 SI MM VERNON 2022-02-27 12:00:00 NR -12.2000 88.4000 PROVISIONAL 1650 1643 O_____________ tcvitals SI142022 -12.2000 88.4000 70 980 1 90 140 85 95 1007 185 5 13 126
2022056S14094 2022 11 SI MM VERNON 2022-02-27 15:00:00 NR -12.7597 88.8936 PROVISIONAL 1661 1661 P_____________ SI142022 -12.7597 88.8936 57 989 0 67 90 50 53 1007 185 5 14 156
2022056S14094 2022 11 SI MM VERNON 2022-02-27 18:00:00 NR -13.5000 89.0000 PROVISIONAL 1713 1713 O_____________ tcvitals SI142022 -13.5000 89.0000 45 998 0 45 40 15 11 1008 185 5 17 199
2022056S14094 2022 11 SI MM VERNON 2022-02-27 21:00:00 NR -14.3812 88.3052 PROVISIONAL 1839 1839 P_____________ SI142022 -14.3812 88.3052 42 1000 0 45 40 15 11 1008 185 5 20 226
2022056S14094 2022 11 SI MM VERNON 2022-02-28 00:00:00 NR -14.9000 87.5000 PROVISIONAL 1937 1911 O_____________ tcvitals SI142022 -14.9000 87.5000 39 1002 0 45 40 15 11 1008 185 5 9 266
2022056S14094 2022 11 SI MM VERNON 2022-02-28 03:00:00 NR -14.4396 87.3745 PROVISIONAL 1903 1854 P_____________ SI142022 -14.4396 87.3745 42 1000 0 55 52 65 58 1008 202 22 11 355
2022056S14094 2022 11 SI MM VERNON 2022-02-28 06:00:00 NR -13.8000 87.4000 PROVISIONAL 1854 1846 O_____________ tcvitals SI142022 -13.8000 87.4000 45 998 0 65 65 115 105 1008 220 40 7 343
2022056S14094 2022 11 SI MM VERNON 2022-02-28 09:00:00 NR -13.7951 87.1726 PROVISIONAL 1869 1869 P_____________ SI142022 -13.7951 87.1726 48 997 0 60 52 72 1008 230 32 5 248
2022056S14094 2022 11 SI MM VERNON 2022-02-28 12:00:00 NR -14.0000 86.9000 PROVISIONAL 1908 1908 O_____________ tcvitals SI142022 -14.0000 86.9000 51 997 0 55 40 30 1008 240 25 7 236
2022056S14094 2022 11 SI MM VERNON 2022-02-28 15:00:00 NR -14.1650 86.6101 PROVISIONAL 1947 1947 P_____________ SI142022 -14.1650 86.6101 48 995 0 65 67 55 1006 240 19 5 232
2022056S14094 2022 11 SI MM VERNON 2022-02-28 18:00:00 NR -14.3000 86.5000 PROVISIONAL 1962 1931 O_____________ tcvitals SI142022 -14.3000 86.5000 45 994 0 75 95 80 55 1004 240 14 2 101
2022056S14094 2022 11 SI MM VERNON 2022-02-28 21:00:00 NR -14.2103 86.8500 PROVISIONAL 1931 1901 P_____________ SI142022 -14.2103 86.8500 42 994 0 77 87 70 57 1004 240 14 7 90
2022056S14094 2022 11 SI MM VERNON 2022-03-01 00:00:00 NR -14.3000 87.2000 PROVISIONAL 1909 1909 O_____________ tcvitals SI142022 -14.3000 87.2000 39 995 0 80 80 60 60 1004 240 14 8 160
2022056S14094 2022 11 SI MM VERNON 2022-03-01 03:00:00 NR -14.9747 87.1425 PROVISIONAL 1974 1974 P_____________ SI142022 -14.9747 87.1425 42 996 0 82 87 72 65 1005 240 19 16 194
2022056S14094 2022 11 SI MM VERNON 2022-03-01 06:00:00 NR -15.8000 86.8000 PROVISIONAL 2062 2062 O_____________ tcvitals SI142022 -15.8000 86.8000 45 997 0 85 95 85 70 1007 240 25 17 213
2022056S14094 2022 11 SI MM VERNON 2022-03-01 09:00:00 NR -16.3831 86.2082 PROVISIONAL 2155 2155 P_____________ SI142022 -16.3831 86.2082 45 996 0 77 87 90 67 1006 235 25 15 229
2022056S14094 2022 11 SI MM VERNON 2022-03-01 12:00:00 NR -16.8000 85.6000 PROVISIONAL 2231 2231 O_____________ tcvitals SI142022 -16.8000 85.6000 45 996 0 70 80 95 65 1005 230 25 11 233
2022056S14094 2022 11 SI MM VERNON 2022-03-01 15:00:00 NR -17.0447 85.2895 PROVISIONAL 2269 2269 P_____________ SI142022 -17.0447 85.2895 45 996 0 75 87 87 62 1005 240 25 6 230
2022056S14094 2022 11 SI MM VERNON 2022-03-01 18:00:00 NR -17.2000 85.1000 PROVISIONAL 2300 2300 O_____________ tcvitals SI142022 -17.2000 85.1000 45 997 0 80 95 80 60 1006 250 25 5 227
2022056S14094 2022 11 SI MM VERNON 2022-03-01 21:00:00 NR -17.3623 84.9370 PROVISIONAL 2331 2331 P_____________ SI142022 -17.3623 84.9370 45 995 0 82 102 82 65 1005 242 25 6 224
2022056S14094 2022 11 SI MM VERNON 2022-03-02 00:00:00 NR -17.6000 84.7000 PROVISIONAL 2362 2362 O_____________ tcvitals SI142022 -17.6000 84.7000 45 994 0 85 110 85 70 1004 235 25 10 227
2022056S14094 2022 11 SI MM VERNON 2022-03-02 03:00:00 NR -18.0205 84.1858 PROVISIONAL 2431 2431 P_____________ SI142022 -18.0205 84.1858 45 994 0 77 112 100 67 1004 227 19 13 227
2022056S14094 2022 11 SI MM VERNON 2022-03-02 06:00:00 NR -18.5000 83.7000 PROVISIONAL 2508 2508 O_____________ tcvitals SI142022 -18.5000 83.7000 45 995 0 70 115 115 65 1005 220 14 11 215
2022056S14094 2022 11 SI MM VERNON 2022-03-02 09:00:00 NR -18.8772 83.5543 PROVISIONAL 2548 2548 P_____________ SI142022 -18.8772 83.5543 48 993 0 72 112 112 65 1005 225 14 8 193
2022056S14094 2022 11 SI MM VERNON 2022-03-02 12:00:00 NR -19.3000 83.5000 PROVISIONAL 2588 2588 O_____________ tcvitals SI142022 -19.3000 83.5000 51 992 0 75 110 110 65 1005 230 14 10 193
2022056S14094 2022 11 SI MM VERNON 2022-03-02 15:00:00 NR -19.8925 83.3152 PROVISIONAL 2651 2633 P_____________ SI142022 -19.8925 83.3152 51 992 0 75 110 110 65 1005 230 14 13 197
2022056S14094 2022 11 SI MM VERNON 2022-03-02 18:00:00 NR -20.5000 83.1000 PROVISIONAL 2633 2610 O_____________ tcvitals SI142022 -20.5000 83.1000 51 992 0 75 110 110 65 1005 230 14 11 200
2022056S14094 2022 11 SI MM VERNON 2022-03-02 21:00:00 NR -20.9123 82.9291 PROVISIONAL 2610 2587 P_____________ SI142022 -20.9123 82.9291 51 992 0 77 130 120 62 1005 195 14 10 202
2022056S14094 2022 11 SI MM VERNON 2022-03-03 00:00:00 NR -21.4000 82.7000 PROVISIONAL 2587 2544 O_____________ tcvitals SI142022 -21.4000 82.7000 51 992 0 80 150 130 60 1005 160 14 14 204
2022056S14094 2022 11 SI MM VERNON 2022-03-03 03:00:00 NR -22.1978 82.3083 PROVISIONAL 2544 2505 P_____________ SI142022 -22.1978 82.3083 51 991 0 97 150 125 57 1005 160 14 19 204
2022056S14094 2022 11 SI MM VERNON 2022-03-03 06:00:00 NR -23.1000 81.9000 PROVISIONAL 2505 2480 O_____________ tcvitals SI142022 -23.1000 81.9000 51 991 0 115 150 120 55 1005 160 14 18 200
2022056S14094 2022 11 SI MM VERNON 2022-03-03 09:00:00 NR -23.9166 81.6298 PROVISIONAL 2480 2468 P_____________ SI142022 -23.9166 81.6298 45 994 0 102 130 100 60 1005 152 34 17 196
2022056S14094 2022 11 SI MM VERNON 2022-03-03 12:00:00 NR -24.7000 81.4000 PROVISIONAL 2469 2450 O_____________ tcvitals SI142022 -24.7000 81.4000 39 997 0 90 110 80 65 1005 145 55 16 196
2022056S14094 2022 11 SI MM VERNON 2022-03-03 15:00:00 NR -25.4615 81.1315 PROVISIONAL 2451 2439 P_____________ SI142022 -25.4615 81.1315 -5 16 198
2022056S14094 2022 11 SI MM VERNON 2022-03-03 18:00:00 NR -26.1758 80.8595 PROVISIONAL 2445 2427 O_____________ tcvitals SI142022 -26.1758 80.8595 -5 15 199
2022056S14094 2022 11 SI MM VERNON 2022-03-03 21:00:00 NR -26.8342 80.5943 PROVISIONAL 2429 2416 P_____________ SI142022 -26.8342 80.5943 -5 14 200
2022056S14094 2022 11 SI MM VERNON 2022-03-04 00:00:00 NR -27.4604 80.3330 PROVISIONAL 2418 O_____________ tcvitals SI142022 -27.4604 80.3330 -5 13 200

About IBTrACS Database

This database is a web-friendly format of International Best Track Archive for Climate Stewardship (IBTrACS), a global best track data archive curated by NOAA dating back to 1842.

Updated: 2022-11-16